バクー の空港の天気 - METARとTAF

ヘイダル・アリエフ国際空港(バクー) ( UBBB / BAK ) - アゼルバイジャン バクー
飛行場実況気象(Metar)
観測時間07/22 04:30 AZT (07/22 00:30 UTC)
風向・風速北北西 3m/s
視程10km以上
天気現象
なし
気温26℃
湿度79%
気圧1010hPa
METARUBBB 220030Z 34005KT CAVOK 26/22 Q1010 R88/D NOSIG
過去の天気等 Google飛行場航空写真 Wunderground天気予報

過去48時間のMETAR

飛行場予報(TAF)
発表時間: 7/21 21:03 AZT (7/21 17:03 UTC)
予報対象時間: 21日22時 AZT ~ 22日22時 AZT
風向・風速北北西 4m/s
視程10km以上
なし
21日22時 AZT ~ 22日10時 AZT に一時的に
風向・風速北北西 7m/s
視程6,000m
全天の4割程度の雲 雲底高度 460m
22日10時 AZT ~ 22日12時 AZT に徐々に
風向・風速北東 5m/s
TAF UBBB 211703Z 2118/2218 34008KT CAVOK TX35/2211Z TN22/2202Z
TEMPO 2118/2206 33014KT 6000 SCT015
BECMG 2206/2208 04010KT